sensor_id;sensor_type;location;lat;lon;timestamp;temperature;humidity
18450;DHT22;9354;50.194;7.690;2023-03-01T00:01:14;-0.40;99.90
18450;DHT22;9354;50.194;7.690;2023-03-01T00:03:42;-0.40;99.90
18450;DHT22;9354;50.194;7.690;2023-03-01T00:06:10;-0.40;99.90
18450;DHT22;9354;50.194;7.690;2023-03-01T00:08:38;-0.40;99.90
18450;DHT22;9354;50.194;7.690;2023-03-01T00:11:09;-0.40;99.90
18450;DHT22;9354;50.194;7.690;2023-03-01T00:13:37;-0.40;99.90
18450;DHT22;9354;50.194;7.690;2023-03-01T00:16:09;-0.40;99.90
18450;DHT22;9354;50.194;7.690;2023-03-01T00:18:39;-0.40;99.90
18450;DHT22;9354;50.194;7.690;2023-03-01T00:21:07;-0.40;99.90
18450;DHT22;9354;50.194;7.690;2023-03-01T00:23:35;-0.40;99.90
18450;DHT22;9354;50.194;7.690;2023-03-01T00:26:06;-0.40;99.90
18450;DHT22;9354;50.194;7.690;2023-03-01T00:28:34;-0.40;99.90
18450;DHT22;9354;50.194;7.690;2023-03-01T00:31:08;-0.40;99.90
18450;DHT22;9354;50.194;7.690;2023-03-01T00:33:36;-0.40;99.90
18450;DHT22;9354;50.194;7.690;2023-03-01T00:36:04;-0.30;99.90
18450;DHT22;9354;50.194;7.690;2023-03-01T00:38:35;-0.30;99.90
18450;DHT22;9354;50.194;7.690;2023-03-01T00:41:04;-0.20;99.90
18450;DHT22;9354;50.194;7.690;2023-03-01T00:43:32;-0.20;99.90
18450;DHT22;9354;50.194;7.690;2023-03-01T00:46:04;-0.10;99.90
18450;DHT22;9354;50.194;7.690;2023-03-01T00:48:35;-0.10;99.90
18450;DHT22;9354;50.194;7.690;2023-03-01T00:51:07;0.00;99.90
18450;DHT22;9354;50.194;7.690;2023-03-01T00:53:36;0.00;99.90
18450;DHT22;9354;50.194;7.690;2023-03-01T00:56:06;-0.10;99.90
18450;DHT22;9354;50.194;7.690;2023-03-01T00:58:35;-0.10;99.90
18450;DHT22;9354;50.194;7.690;2023-03-01T01:01:08;-0.10;99.90
18450;DHT22;9354;50.194;7.690;2023-03-01T01:03:46;0.00;99.90
18450;DHT22;9354;50.194;7.690;2023-03-01T01:06:16;0.00;99.90
18450;DHT22;9354;50.194;7.690;2023-03-01T01:08:44;0.00;99.90
18450;DHT22;9354;50.194;7.690;2023-03-01T01:11:12;0.00;99.90
18450;DHT22;9354;50.194;7.690;2023-03-01T01:13:41;0.10;99.90
18450;DHT22;9354;50.194;7.690;2023-03-01T01:16:09;0.10;99.90
18450;DHT22;9354;50.194;7.690;2023-03-01T01:18:37;0.10;99.90
18450;DHT22;9354;50.194;7.690;2023-03-01T01:21:08;0.10;99.90
18450;DHT22;9354;50.194;7.690;2023-03-01T01:23:38;0.10;99.90
18450;DHT22;9354;50.194;7.690;2023-03-01T01:26:06;0.10;99.90
18450;DHT22;9354;50.194;7.690;2023-03-01T01:28:34;0.10;99.90
18450;DHT22;9354;50.194;7.690;2023-03-01T01:31:03;0.10;99.90
18450;DHT22;9354;50.194;7.690;2023-03-01T01:33:32;0.20;99.90
18450;DHT22;9354;50.194;7.690;2023-03-01T01:36:00;0.20;99.90
18450;DHT22;9354;50.194;7.690;2023-03-01T01:38:29;0.20;99.90
18450;DHT22;9354;50.194;7.690;2023-03-01T01:40:57;0.20;99.90
18450;DHT22;9354;50.194;7.690;2023-03-01T01:43:27;0.20;99.90
18450;DHT22;9354;50.194;7.690;2023-03-01T01:45:58;0.20;99.90
18450;DHT22;9354;50.194;7.690;2023-03-01T01:48:32;0.20;99.90
18450;DHT22;9354;50.194;7.690;2023-03-01T01:51:08;0.20;99.90
18450;DHT22;9354;50.194;7.690;2023-03-01T01:53:39;0.20;99.90
18450;DHT22;9354;50.194;7.690;2023-03-01T01:56:09;0.20;99.90
18450;DHT22;9354;50.194;7.690;2023-03-01T01:58:38;0.20;99.90
18450;DHT22;9354;50.194;7.690;2023-03-01T02:01:08;0.20;99.90
18450;DHT22;9354;50.194;7.690;2023-03-01T02:03:38;0.10;99.90
18450;DHT22;9354;50.194;7.690;2023-03-01T02:06:15;0.10;99.90
18450;DHT22;9354;50.194;7.690;2023-03-01T02:08:49;0.10;99.90
18450;DHT22;9354;50.194;7.690;2023-03-01T02:11:19;0.20;99.90
18450;DHT22;9354;50.194;7.690;2023-03-01T02:13:48;0.20;99.90
18450;DHT22;9354;50.194;7.690;2023-03-01T02:16:17;0.20;99.90
18450;DHT22;9354;50.194;7.690;2023-03-01T02:18:46;0.10;99.90
18450;DHT22;9354;50.194;7.690;2023-03-01T02:21:31;0.10;99.90
18450;DHT22;9354;50.194;7.690;2023-03-01T02:24:10;0.10;99.90
18450;DHT22;9354;50.194;7.690;2023-03-01T02:26:47;0.10;99.90
18450;DHT22;9354;50.194;7.690;2023-03-01T02:29:18;0.10;99.90
18450;DHT22;9354;50.194;7.690;2023-03-01T02:31:47;0.10;99.90
18450;DHT22;9354;50.194;7.690;2023-03-01T02:34:18;0.10;99.90
18450;DHT22;9354;50.194;7.690;2023-03-01T02:36:48;0.10;99.90
18450;DHT22;9354;50.194;7.690;2023-03-01T02:39:18;0.00;99.90
18450;DHT22;9354;50.194;7.690;2023-03-01T02:41:50;0.00;99.90
18450;DHT22;9354;50.194;7.690;2023-03-01T02:44:20;0.00;99.90
18450;DHT22;9354;50.194;7.690;2023-03-01T02:46:51;0.00;99.90
18450;DHT22;9354;50.194;7.690;2023-03-01T02:49:23;-0.10;99.90
18450;DHT22;9354;50.194;7.690;2023-03-01T02:52:11;-0.10;99.90
18450;DHT22;9354;50.194;7.690;2023-03-01T02:54:45;0.00;99.90
18450;DHT22;9354;50.194;7.690;2023-03-01T02:57:14;-0.10;99.90
18450;DHT22;9354;50.194;7.690;2023-03-01T02:59:44;-0.10;99.90
18450;DHT22;9354;50.194;7.690;2023-03-01T03:02:20;0.00;99.90
18450;DHT22;9354;50.194;7.690;2023-03-01T03:05:04;0.00;99.90
18450;DHT22;9354;50.194;7.690;2023-03-01T03:07:32;0.00;99.90
18450;DHT22;9354;50.194;7.690;2023-03-01T03:10:01;0.10;99.90
18450;DHT22;9354;50.194;7.690;2023-03-01T03:12:29;0.10;99.90
18450;DHT22;9354;50.194;7.690;2023-03-01T03:14:59;0.10;99.90
18450;DHT22;9354;50.194;7.690;2023-03-01T03:17:27;0.10;99.90
18450;DHT22;9354;50.194;7.690;2023-03-01T03:19:55;0.10;99.90
18450;DHT22;9354;50.194;7.690;2023-03-01T03:22:23;0.00;99.90
18450;DHT22;9354;50.194;7.690;2023-03-01T03:24:51;0.00;99.90
18450;DHT22;9354;50.194;7.690;2023-03-01T03:27:19;0.00;99.90
18450;DHT22;9354;50.194;7.690;2023-03-01T03:29:47;0.00;99.90
18450;DHT22;9354;50.194;7.690;2023-03-01T03:32:17;0.00;99.90
18450;DHT22;9354;50.194;7.690;2023-03-01T03:34:45;0.00;99.90
18450;DHT22;9354;50.194;7.690;2023-03-01T03:37:12;-0.10;99.90
18450;DHT22;9354;50.194;7.690;2023-03-01T03:39:54;-0.10;99.90
18450;DHT22;9354;50.194;7.690;2023-03-01T03:42:22;-0.10;99.90
18450;DHT22;9354;50.194;7.690;2023-03-01T03:44:49;0.00;99.90
18450;DHT22;9354;50.194;7.690;2023-03-01T03:47:19;0.00;99.90
18450;DHT22;9354;50.194;7.690;2023-03-01T03:49:46;0.00;99.90
18450;DHT22;9354;50.194;7.690;2023-03-01T03:52:14;0.00;99.90
18450;DHT22;9354;50.194;7.690;2023-03-01T03:54:42;0.00;99.90
18450;DHT22;9354;50.194;7.690;2023-03-01T03:57:10;0.00;99.90
18450;DHT22;9354;50.194;7.690;2023-03-01T03:59:38;0.00;99.90
18450;DHT22;9354;50.194;7.690;2023-03-01T04:02:07;0.00;99.90
18450;DHT22;9354;50.194;7.690;2023-03-01T04:04:37;0.00;99.90
18450;DHT22;9354;50.194;7.690;2023-03-01T04:07:04;0.10;99.90
18450;DHT22;9354;50.194;7.690;2023-03-01T04:09:32;0.00;99.90
18450;DHT22;9354;50.194;7.690;2023-03-01T04:12:00;0.00;99.90
18450;DHT22;9354;50.194;7.690;2023-03-01T04:14:28;0.00;99.90
18450;DHT22;9354;50.194;7.690;2023-03-01T04:16:56;0.00;99.90
18450;DHT22;9354;50.194;7.690;2023-03-01T04:19:24;0.00;99.90
18450;DHT22;9354;50.194;7.690;2023-03-01T04:21:55;0.00;99.90
18450;DHT22;9354;50.194;7.690;2023-03-01T04:24:23;-0.10;99.90
18450;DHT22;9354;50.194;7.690;2023-03-01T04:26:51;-0.10;99.90
18450;DHT22;9354;50.194;7.690;2023-03-01T04:29:19;-0.10;99.90
18450;DHT22;9354;50.194;7.690;2023-03-01T04:31:47;-0.20;99.90
18450;DHT22;9354;50.194;7.690;2023-03-01T04:34:16;-0.30;99.90
18450;DHT22;9354;50.194;7.690;2023-03-01T04:36:44;-0.30;99.90
18450;DHT22;9354;50.194;7.690;2023-03-01T04:39:13;-0.40;99.90
18450;DHT22;9354;50.194;7.690;2023-03-01T04:41:41;-0.40;99.90
18450;DHT22;9354;50.194;7.690;2023-03-01T04:44:10;-0.40;99.90
18450;DHT22;9354;50.194;7.690;2023-03-01T04:46:38;-0.40;99.90
18450;DHT22;9354;50.194;7.690;2023-03-01T04:49:07;-0.40;99.90
18450;DHT22;9354;50.194;7.690;2023-03-01T04:51:34;-0.40;99.90
18450;DHT22;9354;50.194;7.690;2023-03-01T04:54:03;-0.40;99.90
18450;DHT22;9354;50.194;7.690;2023-03-01T04:56:36;-0.40;99.90
18450;DHT22;9354;50.194;7.690;2023-03-01T04:59:04;-0.40;99.90
18450;DHT22;9354;50.194;7.690;2023-03-01T05:01:34;-0.50;99.90
18450;DHT22;9354;50.194;7.690;2023-03-01T05:04:02;-0.60;99.90
18450;DHT22;9354;50.194;7.690;2023-03-01T05:06:31;-0.70;99.90
18450;DHT22;9354;50.194;7.690;2023-03-01T05:08:59;-0.80;99.90
18450;DHT22;9354;50.194;7.690;2023-03-01T05:11:27;-0.90;99.90
18450;DHT22;9354;50.194;7.690;2023-03-01T05:14:01;-0.90;99.90
18450;DHT22;9354;50.194;7.690;2023-03-01T05:16:29;-0.90;99.90
18450;DHT22;9354;50.194;7.690;2023-03-01T05:18:58;-1.00;99.90
18450;DHT22;9354;50.194;7.690;2023-03-01T05:21:26;-1.10;99.90
18450;DHT22;9354;50.194;7.690;2023-03-01T05:23:54;-1.10;99.90
18450;DHT22;9354;50.194;7.690;2023-03-01T05:26:22;-1.10;99.90
18450;DHT22;9354;50.194;7.690;2023-03-01T05:28:54;-1.20;99.90
18450;DHT22;9354;50.194;7.690;2023-03-01T05:31:26;-1.30;99.90
18450;DHT22;9354;50.194;7.690;2023-03-01T05:33:54;-1.30;99.90
18450;DHT22;9354;50.194;7.690;2023-03-01T05:36:21;-1.40;99.90
18450;DHT22;9354;50.194;7.690;2023-03-01T05:38:49;-1.50;99.90
18450;DHT22;9354;50.194;7.690;2023-03-01T05:41:17;-1.40;99.90
18450;DHT22;9354;50.194;7.690;2023-03-01T05:43:45;-1.40;99.90
18450;DHT22;9354;50.194;7.690;2023-03-01T05:46:12;-1.40;99.90
18450;DHT22;9354;50.194;7.690;2023-03-01T05:48:43;-1.40;99.90
18450;DHT22;9354;50.194;7.690;2023-03-01T05:51:11;-1.40;99.90
18450;DHT22;9354;50.194;7.690;2023-03-01T05:53:39;-1.30;99.90
18450;DHT22;9354;50.194;7.690;2023-03-01T05:56:07;-1.30;99.90
18450;DHT22;9354;50.194;7.690;2023-03-01T05:58:35;-1.30;99.90
18450;DHT22;9354;50.194;7.690;2023-03-01T06:01:30;-1.30;99.90
18450;DHT22;9354;50.194;7.690;2023-03-01T06:04:00;-1.30;99.90
18450;DHT22;9354;50.194;7.690;2023-03-01T06:06:29;-1.30;99.90
18450;DHT22;9354;50.194;7.690;2023-03-01T06:08:57;-1.30;99.90
18450;DHT22;9354;50.194;7.690;2023-03-01T06:11:24;-1.20;99.90
18450;DHT22;9354;50.194;7.690;2023-03-01T06:13:52;-1.20;99.90
18450;DHT22;9354;50.194;7.690;2023-03-01T06:16:23;-1.30;99.90
18450;DHT22;9354;50.194;7.690;2023-03-01T06:18:50;-1.30;99.90
18450;DHT22;9354;50.194;7.690;2023-03-01T06:21:20;-1.20;99.90
18450;DHT22;9354;50.194;7.690;2023-03-01T06:23:48;-1.20;99.90
18450;DHT22;9354;50.194;7.690;2023-03-01T06:26:15;-1.20;99.90
18450;DHT22;9354;50.194;7.690;2023-03-01T06:28:43;-1.20;99.90
18450;DHT22;9354;50.194;7.690;2023-03-01T06:31:13;-1.30;99.90
18450;DHT22;9354;50.194;7.690;2023-03-01T06:33:40;-1.30;99.90
18450;DHT22;9354;50.194;7.690;2023-03-01T06:36:10;-1.40;99.90
18450;DHT22;9354;50.194;7.690;2023-03-01T06:38:39;-1.40;99.90
18450;DHT22;9354;50.194;7.690;2023-03-01T06:41:08;-1.50;99.90
18450;DHT22;9354;50.194;7.690;2023-03-01T06:43:35;-1.50;99.90
18450;DHT22;9354;50.194;7.690;2023-03-01T06:46:06;-1.50;99.90
18450;DHT22;9354;50.194;7.690;2023-03-01T06:48:36;-1.50;99.90
18450;DHT22;9354;50.194;7.690;2023-03-01T06:51:04;-1.50;99.90
18450;DHT22;9354;50.194;7.690;2023-03-01T06:53:32;-1.40;99.90
18450;DHT22;9354;50.194;7.690;2023-03-01T06:56:01;-1.40;99.90
18450;DHT22;9354;50.194;7.690;2023-03-01T06:58:30;-1.30;99.90
18450;DHT22;9354;50.194;7.690;2023-03-01T07:00:58;-1.20;99.90
18450;DHT22;9354;50.194;7.690;2023-03-01T07:03:26;-1.10;99.90
18450;DHT22;9354;50.194;7.690;2023-03-01T07:05:53;-1.00;99.90
18450;DHT22;9354;50.194;7.690;2023-03-01T07:08:21;-0.90;99.90
18450;DHT22;9354;50.194;7.690;2023-03-01T07:10:55;-0.90;99.90
18450;DHT22;9354;50.194;7.690;2023-03-01T07:13:24;-0.90;99.90
18450;DHT22;9354;50.194;7.690;2023-03-01T07:15:52;-0.90;99.90
18450;DHT22;9354;50.194;7.690;2023-03-01T07:18:20;-0.90;99.90
18450;DHT22;9354;50.194;7.690;2023-03-01T07:20:48;-1.00;99.90
18450;DHT22;9354;50.194;7.690;2023-03-01T07:23:16;-1.00;99.90
18450;DHT22;9354;50.194;7.690;2023-03-01T07:25:51;-1.00;99.90
18450;DHT22;9354;50.194;7.690;2023-03-01T07:28:19;-1.10;99.90
18450;DHT22;9354;50.194;7.690;2023-03-01T07:30:49;-1.10;99.90
18450;DHT22;9354;50.194;7.690;2023-03-01T07:33:17;-1.10;99.90
18450;DHT22;9354;50.194;7.690;2023-03-01T07:35:45;-1.10;99.90
18450;DHT22;9354;50.194;7.690;2023-03-01T07:38:12;-1.00;99.90
18450;DHT22;9354;50.194;7.690;2023-03-01T07:40:40;-1.00;99.90
18450;DHT22;9354;50.194;7.690;2023-03-01T07:43:08;-0.90;99.90
18450;DHT22;9354;50.194;7.690;2023-03-01T07:45:35;-0.80;99.90
18450;DHT22;9354;50.194;7.690;2023-03-01T07:48:05;-0.70;99.90
18450;DHT22;9354;50.194;7.690;2023-03-01T07:50:33;-0.60;99.90
18450;DHT22;9354;50.194;7.690;2023-03-01T07:53:00;-0.50;99.90
18450;DHT22;9354;50.194;7.690;2023-03-01T07:55:28;-0.40;99.90
18450;DHT22;9354;50.194;7.690;2023-03-01T07:57:56;-0.30;99.90
18450;DHT22;9354;50.194;7.690;2023-03-01T08:00:24;-0.20;99.90
18450;DHT22;9354;50.194;7.690;2023-03-01T08:02:52;-0.20;99.90
18450;DHT22;9354;50.194;7.690;2023-03-01T08:05:24;-0.10;99.90
18450;DHT22;9354;50.194;7.690;2023-03-01T08:07:55;-0.10;99.90
18450;DHT22;9354;50.194;7.690;2023-03-01T08:10:23;0.00;99.90
18450;DHT22;9354;50.194;7.690;2023-03-01T08:12:53;0.00;99.90
18450;DHT22;9354;50.194;7.690;2023-03-01T08:15:21;0.00;99.90
18450;DHT22;9354;50.194;7.690;2023-03-01T08:17:49;0.00;99.90
18450;DHT22;9354;50.194;7.690;2023-03-01T08:20:17;0.00;99.90
18450;DHT22;9354;50.194;7.690;2023-03-01T08:22:51;-0.10;99.90
18450;DHT22;9354;50.194;7.690;2023-03-01T08:25:25;0.00;99.90
18450;DHT22;9354;50.194;7.690;2023-03-01T08:27:53;0.00;99.90
18450;DHT22;9354;50.194;7.690;2023-03-01T08:30:21;0.00;99.90
18450;DHT22;9354;50.194;7.690;2023-03-01T08:32:50;0.10;99.90
18450;DHT22;9354;50.194;7.690;2023-03-01T08:35:19;0.20;99.90
18450;DHT22;9354;50.194;7.690;2023-03-01T08:37:47;0.30;99.90
18450;DHT22;9354;50.194;7.690;2023-03-01T08:40:17;0.50;99.90
18450;DHT22;9354;50.194;7.690;2023-03-01T08:46:04;1.10;99.90
18450;DHT22;9354;50.194;7.690;2023-03-01T08:48:32;1.50;99.90
18450;DHT22;9354;50.194;7.690;2023-03-01T08:51:07;1.80;99.90
18450;DHT22;9354;50.194;7.690;2023-03-01T08:53:36;2.20;99.90
18450;DHT22;9354;50.194;7.690;2023-03-01T08:56:05;2.50;99.90
18450;DHT22;9354;50.194;7.690;2023-03-01T08:58:33;2.80;99.90
18450;DHT22;9354;50.194;7.690;2023-03-01T09:01:07;3.10;99.90
18450;DHT22;9354;50.194;7.690;2023-03-01T09:03:35;3.40;99.90
18450;DHT22;9354;50.194;7.690;2023-03-01T09:06:05;3.70;99.90
18450;DHT22;9354;50.194;7.690;2023-03-01T09:08:34;4.00;99.90
18450;DHT22;9354;50.194;7.690;2023-03-01T09:11:03;4.20;99.90
18450;DHT22;9354;50.194;7.690;2023-03-01T09:13:33;4.30;99.90
18450;DHT22;9354;50.194;7.690;2023-03-01T09:16:02;4.40;99.90
18450;DHT22;9354;50.194;7.690;2023-03-01T09:18:30;4.50;99.90
18450;DHT22;9354;50.194;7.690;2023-03-01T09:21:02;4.60;99.90
18450;DHT22;9354;50.194;7.690;2023-03-01T09:23:34;4.50;99.90
18450;DHT22;9354;50.194;7.690;2023-03-01T09:26:05;4.60;99.90
18450;DHT22;9354;50.194;7.690;2023-03-01T09:28:37;4.70;99.90
18450;DHT22;9354;50.194;7.690;2023-03-01T09:31:06;5.00;99.90
18450;DHT22;9354;50.194;7.690;2023-03-01T09:33:34;5.20;99.90
18450;DHT22;9354;50.194;7.690;2023-03-01T09:36:04;5.20;99.90
18450;DHT22;9354;50.194;7.690;2023-03-01T09:38:33;5.10;99.90
18450;DHT22;9354;50.194;7.690;2023-03-01T09:41:01;5.20;99.90
18450;DHT22;9354;50.194;7.690;2023-03-01T09:43:39;5.30;99.90
18450;DHT22;9354;50.194;7.690;2023-03-01T09:46:12;5.30;99.90
18450;DHT22;9354;50.194;7.690;2023-03-01T09:48:45;5.20;99.90
18450;DHT22;9354;50.194;7.690;2023-03-01T09:51:19;5.20;99.90
18450;DHT22;9354;50.194;7.690;2023-03-01T09:53:49;5.40;99.90
18450;DHT22;9354;50.194;7.690;2023-03-01T09:56:24;5.50;99.90
18450;DHT22;9354;50.194;7.690;2023-03-01T09:58:58;5.60;99.90
18450;DHT22;9354;50.194;7.690;2023-03-01T10:01:33;5.70;99.90
18450;DHT22;9354;50.194;7.690;2023-03-01T10:04:12;5.60;99.90
18450;DHT22;9354;50.194;7.690;2023-03-01T10:06:45;5.50;99.90
18450;DHT22;9354;50.194;7.690;2023-03-01T10:09:18;5.40;99.90
18450;DHT22;9354;50.194;7.690;2023-03-01T10:11:50;5.30;99.90
18450;DHT22;9354;50.194;7.690;2023-03-01T10:14:29;5.40;99.90
18450;DHT22;9354;50.194;7.690;2023-03-01T10:17:02;5.40;99.90
18450;DHT22;9354;50.194;7.690;2023-03-01T10:19:33;5.50;99.90
18450;DHT22;9354;50.194;7.690;2023-03-01T10:22:11;5.70;99.90
18450;DHT22;9354;50.194;7.690;2023-03-01T10:24:40;5.90;99.90
18450;DHT22;9354;50.194;7.690;2023-03-01T10:27:11;5.90;99.90
18450;DHT22;9354;50.194;7.690;2023-03-01T10:29:44;6.10;99.90
18450;DHT22;9354;50.194;7.690;2023-03-01T10:32:16;6.30;99.90
18450;DHT22;9354;50.194;7.690;2023-03-01T10:34:44;6.40;99.90
18450;DHT22;9354;50.194;7.690;2023-03-01T10:37:15;6.40;99.90
18450;DHT22;9354;50.194;7.690;2023-03-01T10:39:58;6.50;99.90
18450;DHT22;9354;50.194;7.690;2023-03-01T10:42:28;6.70;99.90
18450;DHT22;9354;50.194;7.690;2023-03-01T10:44:57;6.90;99.90
18450;DHT22;9354;50.194;7.690;2023-03-01T10:47:27;7.00;99.90
18450;DHT22;9354;50.194;7.690;2023-03-01T10:50:01;7.10;99.90
18450;DHT22;9354;50.194;7.690;2023-03-01T10:52:34;7.10;99.90
18450;DHT22;9354;50.194;7.690;2023-03-01T10:55:23;7.10;99.90
18450;DHT22;9354;50.194;7.690;2023-03-01T10:58:06;7.10;99.90
18450;DHT22;9354;50.194;7.690;2023-03-01T11:04:11;7.40;99.90
18450;DHT22;9354;50.194;7.690;2023-03-01T11:06:40;7.50;99.90
18450;DHT22;9354;50.194;7.690;2023-03-01T11:09:17;7.50;99.90
18450;DHT22;9354;50.194;7.690;2023-03-01T11:11:45;7.50;99.90
18450;DHT22;9354;50.194;7.690;2023-03-01T11:14:16;7.60;99.90
18450;DHT22;9354;50.194;7.690;2023-03-01T11:16:45;7.80;99.90
18450;DHT22;9354;50.194;7.690;2023-03-01T11:19:20;7.90;99.90
18450;DHT22;9354;50.194;7.690;2023-03-01T11:21:57;8.10;99.90
18450;DHT22;9354;50.194;7.690;2023-03-01T11:24:31;8.30;99.90
18450;DHT22;9354;50.194;7.690;2023-03-01T11:27:04;8.20;99.90
18450;DHT22;9354;50.194;7.690;2023-03-01T11:29:38;8.30;99.90
18450;DHT22;9354;50.194;7.690;2023-03-01T11:32:09;8.40;99.90
18450;DHT22;9354;50.194;7.690;2023-03-01T11:34:45;8.60;99.90
18450;DHT22;9354;50.194;7.690;2023-03-01T11:37:23;8.60;99.90
18450;DHT22;9354;50.194;7.690;2023-03-01T11:39:58;8.70;99.90
18450;DHT22;9354;50.194;7.690;2023-03-01T11:42:35;8.60;99.90
18450;DHT22;9354;50.194;7.690;2023-03-01T11:45:10;8.40;99.90
18450;DHT22;9354;50.194;7.690;2023-03-01T11:50:38;8.10;99.90
18450;DHT22;9354;50.194;7.690;2023-03-01T11:53:30;8.00;99.90
18450;DHT22;9354;50.194;7.690;2023-03-01T12:00:07;8.00;99.90
18450;DHT22;9354;50.194;7.690;2023-03-01T12:03:13;8.30;99.90
18450;DHT22;9354;50.194;7.690;2023-03-01T12:06:00;8.60;99.90
18450;DHT22;9354;50.194;7.690;2023-03-01T12:08:35;8.70;99.90
18450;DHT22;9354;50.194;7.690;2023-03-01T12:11:14;8.70;99.90
18450;DHT22;9354;50.194;7.690;2023-03-01T12:14:19;8.70;99.90
18450;DHT22;9354;50.194;7.690;2023-03-01T12:17:05;8.70;99.90
18450;DHT22;9354;50.194;7.690;2023-03-01T12:19:54;8.70;99.90
18450;DHT22;9354;50.194;7.690;2023-03-01T12:22:32;8.80;99.90
18450;DHT22;9354;50.194;7.690;2023-03-01T12:25:20;8.80;99.90
18450;DHT22;9354;50.194;7.690;2023-03-01T12:33:57;9.20;99.90
18450;DHT22;9354;50.194;7.690;2023-03-01T12:36:52;9.40;99.90
18450;DHT22;9354;50.194;7.690;2023-03-01T12:39:42;9.70;99.90
18450;DHT22;9354;50.194;7.690;2023-03-01T12:42:20;9.90;99.90
18450;DHT22;9354;50.194;7.690;2023-03-01T12:45:02;9.80;99.90
18450;DHT22;9354;50.194;7.690;2023-03-01T12:47:44;9.80;99.90
18450;DHT22;9354;50.194;7.690;2023-03-01T12:50:18;9.80;99.90
18450;DHT22;9354;50.194;7.690;2023-03-01T12:52:50;9.80;99.90
18450;DHT22;9354;50.194;7.690;2023-03-01T12:55:26;9.90;99.90
18450;DHT22;9354;50.194;7.690;2023-03-01T12:58:02;10.00;99.90
18450;DHT22;9354;50.194;7.690;2023-03-01T13:00:38;10.10;99.90
18450;DHT22;9354;50.194;7.690;2023-03-01T13:03:18;10.10;99.90
18450;DHT22;9354;50.194;7.690;2023-03-01T13:06:02;10.20;99.90
18450;DHT22;9354;50.194;7.690;2023-03-01T13:08:36;10.30;99.90
18450;DHT22;9354;50.194;7.690;2023-03-01T13:11:15;10.20;99.90
18450;DHT22;9354;50.194;7.690;2023-03-01T13:13:44;10.10;99.90
18450;DHT22;9354;50.194;7.690;2023-03-01T13:16:40;9.90;99.90
18450;DHT22;9354;50.194;7.690;2023-03-01T13:19:13;9.80;99.90
18450;DHT22;9354;50.194;7.690;2023-03-01T13:21:42;9.90;99.90
18450;DHT22;9354;50.194;7.690;2023-03-01T13:24:27;9.90;99.90
18450;DHT22;9354;50.194;7.690;2023-03-01T13:27:36;10.00;99.90
18450;DHT22;9354;50.194;7.690;2023-03-01T13:30:12;10.00;99.90
18450;DHT22;9354;50.194;7.690;2023-03-01T13:33:33;9.90;99.90
18450;DHT22;9354;50.194;7.690;2023-03-01T13:36:04;9.90;99.90
18450;DHT22;9354;50.194;7.690;2023-03-01T13:38:44;10.00;99.90
18450;DHT22;9354;50.194;7.690;2023-03-01T13:41:12;9.80;99.90
18450;DHT22;9354;50.194;7.690;2023-03-01T13:43:42;9.90;99.90
18450;DHT22;9354;50.194;7.690;2023-03-01T13:46:14;10.00;99.90
18450;DHT22;9354;50.194;7.690;2023-03-01T13:48:45;10.20;99.90
18450;DHT22;9354;50.194;7.690;2023-03-01T13:51:19;10.30;99.90
18450;DHT22;9354;50.194;7.690;2023-03-01T13:53:47;10.20;99.90
18450;DHT22;9354;50.194;7.690;2023-03-01T13:56:19;10.30;99.90
18450;DHT22;9354;50.194;7.690;2023-03-01T13:58:50;10.20;99.90
18450;DHT22;9354;50.194;7.690;2023-03-01T14:01:25;10.10;99.90
18450;DHT22;9354;50.194;7.690;2023-03-01T14:03:53;10.00;99.90
18450;DHT22;9354;50.194;7.690;2023-03-01T14:06:25;10.00;99.90
18450;DHT22;9354;50.194;7.690;2023-03-01T14:09:03;10.00;99.90
18450;DHT22;9354;50.194;7.690;2023-03-01T14:11:56;10.00;99.90
18450;DHT22;9354;50.194;7.690;2023-03-01T14:14:48;10.10;99.90
18450;DHT22;9354;50.194;7.690;2023-03-01T14:20:12;10.00;99.90
18450;DHT22;9354;50.194;7.690;2023-03-01T14:22:44;9.90;99.90
18450;DHT22;9354;50.194;7.690;2023-03-01T14:25:26;9.70;99.90
18450;DHT22;9354;50.194;7.690;2023-03-01T14:27:58;9.70;99.90
18450;DHT22;9354;50.194;7.690;2023-03-01T14:30:30;9.70;99.90
18450;DHT22;9354;50.194;7.690;2023-03-01T14:33:01;9.60;99.90
18450;DHT22;9354;50.194;7.690;2023-03-01T14:35:31;9.50;99.90
18450;DHT22;9354;50.194;7.690;2023-03-01T14:38:01;9.30;99.90
18450;DHT22;9354;50.194;7.690;2023-03-01T14:40:31;9.20;99.90
18450;DHT22;9354;50.194;7.690;2023-03-01T14:43:01;9.10;99.90
18450;DHT22;9354;50.194;7.690;2023-03-01T14:45:30;9.10;99.90
18450;DHT22;9354;50.194;7.690;2023-03-01T14:48:00;8.90;99.90
18450;DHT22;9354;50.194;7.690;2023-03-01T14:50:30;8.90;99.90
18450;DHT22;9354;50.194;7.690;2023-03-01T14:53:02;8.90;99.90
18450;DHT22;9354;50.194;7.690;2023-03-01T14:55:33;8.80;99.90
18450;DHT22;9354;50.194;7.690;2023-03-01T14:58:04;8.60;99.90
18450;DHT22;9354;50.194;7.690;2023-03-01T15:00:34;8.50;99.90
18450;DHT22;9354;50.194;7.690;2023-03-01T15:03:07;8.30;99.90
18450;DHT22;9354;50.194;7.690;2023-03-01T15:09:03;8.10;99.90
18450;DHT22;9354;50.194;7.690;2023-03-01T15:11:33;7.90;99.90
18450;DHT22;9354;50.194;7.690;2023-03-01T15:14:27;7.80;99.90
18450;DHT22;9354;50.194;7.690;2023-03-01T15:16:55;7.60;99.90
18450;DHT22;9354;50.194;7.690;2023-03-01T15:19:28;7.50;99.90
18450;DHT22;9354;50.194;7.690;2023-03-01T15:21:56;7.30;99.90
18450;DHT22;9354;50.194;7.690;2023-03-01T15:27:53;7.10;99.90
18450;DHT22;9354;50.194;7.690;2023-03-01T15:30:24;7.00;99.90
18450;DHT22;9354;50.194;7.690;2023-03-01T15:33:18;6.90;99.90
18450;DHT22;9354;50.194;7.690;2023-03-01T15:35:48;6.90;99.90
18450;DHT22;9354;50.194;7.690;2023-03-01T15:41:47;6.90;99.90
18450;DHT22;9354;50.194;7.690;2023-03-01T15:44:25;6.90;99.90
18450;DHT22;9354;50.194;7.690;2023-03-01T15:46:53;6.80;99.90
18450;DHT22;9354;50.194;7.690;2023-03-01T15:49:31;6.70;99.90
18450;DHT22;9354;50.194;7.690;2023-03-01T15:52:00;6.60;99.90
18450;DHT22;9354;50.194;7.690;2023-03-01T15:54:29;6.50;99.90
18450;DHT22;9354;50.194;7.690;2023-03-01T15:56:57;6.50;99.90
18450;DHT22;9354;50.194;7.690;2023-03-01T15:59:28;6.40;99.90
18450;DHT22;9354;50.194;7.690;2023-03-01T16:01:56;6.40;99.90
18450;DHT22;9354;50.194;7.690;2023-03-01T16:04:23;6.40;99.90
18450;DHT22;9354;50.194;7.690;2023-03-01T16:06:52;6.40;99.90
18450;DHT22;9354;50.194;7.690;2023-03-01T16:09:22;6.30;99.90
18450;DHT22;9354;50.194;7.690;2023-03-01T16:15:18;6.30;99.90
18450;DHT22;9354;50.194;7.690;2023-03-01T16:17:47;6.10;99.90
18450;DHT22;9354;50.194;7.690;2023-03-01T16:20:16;6.10;99.90
18450;DHT22;9354;50.194;7.690;2023-03-01T16:22:48;6.00;99.90
18450;DHT22;9354;50.194;7.690;2023-03-01T16:25:23;5.90;99.90
18450;DHT22;9354;50.194;7.690;2023-03-01T16:27:55;5.80;99.90
18450;DHT22;9354;50.194;7.690;2023-03-01T16:37:20;5.70;99.90
18450;DHT22;9354;50.194;7.690;2023-03-01T16:39:48;5.60;99.90
18450;DHT22;9354;50.194;7.690;2023-03-01T16:42:18;5.60;99.90
18450;DHT22;9354;50.194;7.690;2023-03-01T16:44:46;5.50;99.90
18450;DHT22;9354;50.194;7.690;2023-03-01T16:47:15;5.50;99.90
18450;DHT22;9354;50.194;7.690;2023-03-01T16:49:44;5.50;99.90
18450;DHT22;9354;50.194;7.690;2023-03-01T16:52:16;5.40;99.90
18450;DHT22;9354;50.194;7.690;2023-03-01T16:54:49;5.40;99.90
18450;DHT22;9354;50.194;7.690;2023-03-01T16:57:19;5.40;99.90
18450;DHT22;9354;50.194;7.690;2023-03-01T16:59:51;5.30;99.90
18450;DHT22;9354;50.194;7.690;2023-03-01T17:02:21;5.30;99.90
18450;DHT22;9354;50.194;7.690;2023-03-01T17:04:52;5.30;99.90
18450;DHT22;9354;50.194;7.690;2023-03-01T17:07:21;5.20;99.90